createdAt,value
2023-03-23T00:02:44.425Z,372.00
2023-03-23T00:06:42.548Z,371.00
2023-03-23T00:10:42.746Z,369.00
2023-03-23T00:14:42.934Z,368.00
2023-03-23T00:18:43.136Z,375.00
2023-03-23T00:22:43.359Z,376.00
2023-03-23T00:26:48.035Z,375.00
2023-03-23T00:30:43.535Z,371.00
2023-03-23T00:34:43.479Z,371.00
2023-03-23T00:38:43.624Z,375.00
2023-03-23T00:42:43.855Z,375.00
2023-03-23T00:46:43.814Z,370.00
2023-03-23T00:50:43.766Z,374.00
2023-03-23T00:54:43.731Z,377.00
2023-03-23T00:58:43.679Z,378.00
2023-03-23T01:02:43.645Z,381.00
2023-03-23T01:06:43.619Z,386.00
2023-03-23T01:10:43.583Z,384.00
2023-03-23T01:14:43.527Z,384.00
2023-03-23T01:18:43.484Z,377.00
2023-03-23T01:22:43.467Z,381.00
2023-03-23T01:26:43.625Z,380.00
2023-03-23T01:30:43.863Z,375.00
2023-03-23T01:34:43.817Z,375.00
2023-03-23T01:38:43.783Z,379.00
2023-03-23T01:42:43.750Z,380.00
2023-03-23T01:46:43.706Z,382.00
2023-03-23T01:50:43.687Z,379.00
2023-03-23T01:54:43.624Z,380.00
2023-03-23T01:58:43.598Z,385.00
2023-03-23T02:02:43.573Z,383.00
2023-03-23T02:06:43.523Z,378.00
2023-03-23T02:10:43.529Z,380.00
2023-03-23T02:14:44.477Z,383.00
2023-03-23T02:18:43.500Z,389.00
2023-03-23T02:22:43.465Z,386.00
2023-03-23T02:26:43.426Z,387.00
2023-03-23T02:30:43.373Z,392.00
2023-03-23T02:34:43.356Z,392.00
2023-03-23T02:38:43.304Z,397.00
2023-03-23T02:42:43.264Z,397.00
2023-03-23T02:46:43.240Z,394.00
2023-03-23T02:50:43.187Z,397.00
2023-03-23T02:54:43.164Z,398.00
2023-03-23T02:58:43.110Z,397.00
2023-03-23T03:02:43.087Z,395.00
2023-03-23T03:06:43.073Z,391.00
2023-03-23T03:10:43.008Z,390.00
2023-03-23T03:14:42.985Z,390.00
2023-03-23T03:18:42.922Z,392.00
2023-03-23T03:22:42.899Z,394.00
2023-03-23T03:26:42.938Z,389.00
2023-03-23T03:30:43.155Z,390.00
2023-03-23T03:34:43.119Z,393.00
2023-03-23T03:38:43.059Z,389.00
2023-03-23T03:42:43.042Z,389.00
2023-03-23T03:46:43.003Z,391.00
2023-03-23T03:50:42.951Z,391.00
2023-03-23T03:54:42.928Z,385.00
2023-03-23T03:58:42.897Z,390.00
2023-03-23T04:02:42.853Z,390.00
2023-03-23T04:06:42.795Z,393.00
2023-03-23T04:10:42.826Z,395.00
2023-03-23T04:14:43.058Z,393.00
2023-03-23T04:18:43.264Z,388.00
2023-03-23T04:22:44.249Z,387.00
2023-03-23T04:26:43.181Z,390.00
2023-03-23T04:30:43.393Z,391.00
2023-03-23T04:34:43.360Z,393.00
2023-03-23T04:38:43.306Z,390.00
2023-03-23T04:42:43.264Z,395.00
2023-03-23T04:46:43.250Z,402.00
2023-03-23T04:50:43.200Z,401.00
2023-03-23T04:54:43.151Z,400.00
2023-03-23T04:58:43.137Z,399.00
2023-03-23T05:02:43.078Z,401.00
2023-03-23T05:06:43.140Z,403.00
2023-03-23T05:10:43.087Z,408.00
2023-03-23T05:14:43.255Z,404.00
2023-03-23T05:18:43.264Z,406.00
2023-03-23T05:22:42.987Z,405.00
2023-03-23T05:26:43.255Z,406.00
2023-03-23T05:30:43.251Z,405.00
2023-03-23T05:34:42.895Z,404.00
2023-03-23T05:38:42.828Z,401.00
2023-03-23T05:42:43.268Z,392.00
2023-03-23T05:46:42.893Z,395.00
2023-03-23T05:50:42.855Z,403.00
2023-03-23T05:54:42.816Z,403.00
2023-03-23T05:58:42.785Z,407.00
2023-03-23T06:02:42.730Z,402.00
2023-03-23T06:06:42.719Z,396.00
2023-03-23T06:10:42.780Z,403.00
2023-03-23T06:14:42.765Z,404.00
2023-03-23T06:18:42.587Z,401.00
2023-03-23T06:22:42.571Z,402.00
2023-03-23T06:26:42.524Z,411.00
2023-03-23T06:30:42.545Z,413.00
2023-03-23T06:34:42.737Z,693.00
2023-03-23T06:38:43.292Z,596.00
2023-03-23T06:42:42.921Z,574.00
2023-03-23T06:46:43.118Z,570.00
2023-03-23T06:50:43.283Z,577.00
2023-03-23T06:54:43.471Z,589.00
2023-03-23T06:58:43.566Z,605.00
2023-03-23T07:02:43.665Z,618.00
2023-03-23T07:06:43.821Z,626.00
2023-03-23T07:10:44.309Z,631.00
2023-03-23T07:14:44.305Z,637.00
2023-03-23T07:18:44.365Z,646.00
2023-03-23T07:22:44.057Z,678.00
2023-03-23T07:26:44.189Z,684.00
2023-03-23T07:30:44.815Z,684.00
2023-03-23T07:34:44.360Z,800.00
2023-03-23T07:38:44.820Z,805.00
2023-03-23T07:42:44.326Z,766.00
2023-03-23T07:46:44.308Z,749.00
2023-03-23T07:50:44.345Z,708.00
2023-03-23T07:54:44.161Z,671.00
2023-03-23T07:58:44.120Z,640.00
2023-03-23T08:02:44.088Z,621.00
2023-03-23T08:06:44.033Z,607.00
2023-03-23T08:10:44.002Z,590.00
2023-03-23T08:14:44.200Z,579.00
2023-03-23T08:18:43.952Z,569.00
2023-03-23T08:22:51.385Z,557.00
2023-03-23T08:26:45.339Z,609.00
2023-03-23T08:30:43.828Z,1387.00
2023-03-23T08:34:43.853Z,763.00
2023-03-23T08:38:44.330Z,820.00
2023-03-23T08:42:47.300Z,832.00
2023-03-23T08:46:44.860Z,836.00
2023-03-23T08:50:43.808Z,844.00
2023-03-23T08:54:43.760Z,841.00
2023-03-23T08:58:43.836Z,836.00
2023-03-23T09:02:43.835Z,835.00
2023-03-23T09:06:43.673Z,832.00
2023-03-23T09:10:43.614Z,840.00
2023-03-23T09:14:43.592Z,842.00
2023-03-23T09:18:43.574Z,850.00
2023-03-23T09:22:43.861Z,831.00
2023-03-23T09:26:43.576Z,709.00
2023-03-23T09:30:53.079Z,551.00
2023-03-23T09:34:44.737Z,498.00
2023-03-23T09:38:43.674Z,474.00
2023-03-23T09:42:43.971Z,632.00
2023-03-23T09:46:44.092Z,737.00
2023-03-23T09:50:44.383Z,773.00
2023-03-23T09:54:44.385Z,730.00
2023-03-23T09:58:45.861Z,816.00
2023-03-23T10:02:44.201Z,830.00
2023-03-23T10:06:44.164Z,833.00
2023-03-23T10:10:44.132Z,830.00
2023-03-23T10:14:44.422Z,822.00
2023-03-23T10:18:44.387Z,827.00
2023-03-23T10:22:44.005Z,821.00
2023-03-23T10:26:44.390Z,833.00
2023-03-23T10:30:44.393Z,802.00
2023-03-23T10:34:43.878Z,820.00
2023-03-23T10:38:43.918Z,863.00
2023-03-23T10:42:43.940Z,886.00
2023-03-23T10:46:48.177Z,861.00
2023-03-23T10:50:44.115Z,895.00
2023-03-23T10:54:44.124Z,573.00
2023-03-23T10:58:44.245Z,589.00
2023-03-23T11:02:44.316Z,562.00
2023-03-23T11:06:44.414Z,537.00
2023-03-23T11:10:44.488Z,554.00
2023-03-23T11:14:44.631Z,575.00
2023-03-23T11:18:44.728Z,541.00
2023-03-23T11:22:44.929Z,555.00
2023-03-23T11:26:53.497Z,645.00
2023-03-23T11:30:46.446Z,662.00
2023-03-23T11:34:45.131Z,668.00
2023-03-23T11:38:45.434Z,622.00
2023-03-23T11:42:45.423Z,510.00
2023-03-23T11:46:45.462Z,482.00
2023-03-23T11:50:45.578Z,465.00
2023-03-23T11:54:46.009Z,512.00
2023-03-23T11:58:45.967Z,478.00
2023-03-23T12:02:45.969Z,441.00
2023-03-23T12:06:45.938Z,429.00
2023-03-23T12:10:46.123Z,446.00
2023-03-23T12:14:45.969Z,530.00
2023-03-23T12:18:46.005Z,543.00
2023-03-23T12:22:45.438Z,549.00
2023-03-23T12:26:45.386Z,534.00
2023-03-23T12:30:45.363Z,543.00
2023-03-23T12:34:45.307Z,551.00
2023-03-23T12:38:45.313Z,554.00
2023-03-23T12:42:45.267Z,547.00
2023-03-23T12:46:45.206Z,541.00
2023-03-23T12:50:45.290Z,539.00
2023-03-23T12:54:45.371Z,539.00
2023-03-23T12:58:45.460Z,533.00
2023-03-23T13:02:45.564Z,530.00
2023-03-23T13:06:45.669Z,527.00
2023-03-23T13:10:45.747Z,518.00
2023-03-23T13:14:45.822Z,511.00
2023-03-23T13:18:45.880Z,503.00
2023-03-23T13:22:45.959Z,497.00
2023-03-23T13:26:46.001Z,485.00
2023-03-23T13:30:46.517Z,448.00
2023-03-23T13:34:46.172Z,406.00
2023-03-23T13:38:46.298Z,393.00
2023-03-23T13:42:46.432Z,394.00
2023-03-23T13:46:46.560Z,393.00
2023-03-23T13:50:46.703Z,393.00
2023-03-23T13:54:46.856Z,391.00
2023-03-23T13:58:48.741Z,394.00
2023-03-23T14:02:47.002Z,393.00
2023-03-23T14:06:47.003Z,391.00
2023-03-23T14:10:46.894Z,391.00
2023-03-23T14:14:46.860Z,386.00
2023-03-23T14:18:46.799Z,380.00
2023-03-23T14:22:46.757Z,385.00
2023-03-23T14:26:46.741Z,383.00
2023-03-23T14:30:46.698Z,361.00
2023-03-23T14:34:46.655Z,355.00
2023-03-23T14:38:46.999Z,350.00
2023-03-23T14:42:46.577Z,356.00
2023-03-23T14:46:46.615Z,366.00
2023-03-23T14:50:46.989Z,377.00
2023-03-23T14:54:46.993Z,371.00
2023-03-23T14:58:47.010Z,381.00
2023-03-23T15:02:47.091Z,406.00
2023-03-23T15:06:47.207Z,401.00
2023-03-23T15:10:47.387Z,393.00
2023-03-23T15:14:47.535Z,398.00
2023-03-23T15:18:47.703Z,395.00
2023-03-23T15:22:47.839Z,396.00
2023-03-23T15:26:48.006Z,393.00
2023-03-23T15:30:48.133Z,396.00
2023-03-23T15:34:48.261Z,396.00
2023-03-23T15:38:48.403Z,396.00
2023-03-23T15:42:48.508Z,399.00
2023-03-23T15:46:48.614Z,397.00
2023-03-23T15:50:48.746Z,395.00
2023-03-23T15:54:48.860Z,397.00
2023-03-23T15:58:49.018Z,391.00
